sensor_id;sensor_type;location;lat;lon;timestamp;pressure;altitude;pressure_sealevel;temperature;humidity
46392;BME280;32098;49.448;7.904;2023-11-21T00:01:14;97482.22;;;7.28;94.27
46392;BME280;32098;49.448;7.904;2023-11-21T00:03:43;97481.19;;;7.29;94.29
46392;BME280;32098;49.448;7.904;2023-11-21T00:06:10;97468.22;;;7.21;93.82
46392;BME280;32098;49.448;7.904;2023-11-21T00:08:37;97486.94;;;7.26;94.02
46392;BME280;32098;49.448;7.904;2023-11-21T00:11:04;97479.78;;;7.26;94.17
46392;BME280;32098;49.448;7.904;2023-11-21T00:13:32;97472.66;;;7.27;93.75
46392;BME280;32098;49.448;7.904;2023-11-21T00:15:59;97461.28;;;7.20;94.37
46392;BME280;32098;49.448;7.904;2023-11-21T00:18:26;97474.13;;;7.23;93.98
46392;BME280;32098;49.448;7.904;2023-11-21T00:20:53;97469.25;;;7.20;93.77
46392;BME280;32098;49.448;7.904;2023-11-21T00:23:19;97471.13;;;7.19;93.91
46392;BME280;32098;49.448;7.904;2023-11-21T00:25:46;97460.84;;;7.23;93.75
46392;BME280;32098;49.448;7.904;2023-11-21T00:28:12;97465.34;;;7.22;93.73
46392;BME280;32098;49.448;7.904;2023-11-21T00:30:39;97464.31;;;7.23;94.51
46392;BME280;32098;49.448;7.904;2023-11-21T00:33:06;97467.34;;;7.27;93.63
46392;BME280;32098;49.448;7.904;2023-11-21T00:35:33;97466.84;;;7.30;93.94
46392;BME280;32098;49.448;7.904;2023-11-21T00:38:00;97470.56;;;7.29;93.67
46392;BME280;32098;49.448;7.904;2023-11-21T00:40:26;97474.25;;;7.28;94.29
46392;BME280;32098;49.448;7.904;2023-11-21T00:42:53;97472.84;;;7.25;94.54
46392;BME280;32098;49.448;7.904;2023-11-21T00:45:20;97471.81;;;7.26;93.86
46392;BME280;32098;49.448;7.904;2023-11-21T00:47:46;97473.81;;;7.31;93.98
46392;BME280;32098;49.448;7.904;2023-11-21T00:50:13;97466.66;;;7.32;94.29
46392;BME280;32098;49.448;7.904;2023-11-21T00:52:40;97462.50;;;7.36;93.89
46392;BME280;32098;49.448;7.904;2023-11-21T00:55:07;97461.66;;;7.35;93.66
46392;BME280;32098;49.448;7.904;2023-11-21T00:57:35;97461.66;;;7.35;93.80
46392;BME280;32098;49.448;7.904;2023-11-21T01:00:02;97477.97;;;7.27;93.70
46392;BME280;32098;49.448;7.904;2023-11-21T01:02:34;97466.06;;;7.29;94.03
46392;BME280;32098;49.448;7.904;2023-11-21T01:05:02;97468.47;;;7.31;94.10
46392;BME280;32098;49.448;7.904;2023-11-21T01:07:30;97480.25;;;7.35;94.77
46392;BME280;32098;49.448;7.904;2023-11-21T01:09:56;97471.72;;;7.33;94.55
46392;BME280;32098;49.448;7.904;2023-11-21T01:12:23;97472.88;;;7.37;93.81
46392;BME280;32098;49.448;7.904;2023-11-21T01:14:52;97475.31;;;7.39;94.17
46392;BME280;32098;49.448;7.904;2023-11-21T01:17:18;97480.84;;;7.37;94.21
46392;BME280;32098;49.448;7.904;2023-11-21T01:19:45;97486.28;;;7.42;93.98
46392;BME280;32098;49.448;7.904;2023-11-21T01:22:12;97485.56;;;7.35;94.21
46392;BME280;32098;49.448;7.904;2023-11-21T01:24:38;97487.22;;;7.36;94.58
46392;BME280;32098;49.448;7.904;2023-11-21T01:27:05;97488.81;;;7.37;94.71
46392;BME280;32098;49.448;7.904;2023-11-21T01:29:32;97482.91;;;7.35;94.92
46392;BME280;32098;49.448;7.904;2023-11-21T01:31:59;97482.72;;;7.37;94.54
46392;BME280;32098;49.448;7.904;2023-11-21T01:34:26;97486.75;;;7.39;95.37
46392;BME280;32098;49.448;7.904;2023-11-21T01:36:53;97484.09;;;7.39;95.25
46392;BME280;32098;49.448;7.904;2023-11-21T01:39:19;97492.28;;;7.38;95.67
46392;BME280;32098;49.448;7.904;2023-11-21T01:41:50;97486.75;;;7.39;95.37
46392;BME280;32098;49.448;7.904;2023-11-21T01:44:18;97493.69;;;7.40;95.18
46392;BME280;32098;49.448;7.904;2023-11-21T01:46:46;97492.06;;;7.39;95.58
46392;BME280;32098;49.448;7.904;2023-11-21T01:49:16;97476.22;;;7.32;95.26
46392;BME280;32098;49.448;7.904;2023-11-21T01:51:47;97482.72;;;7.37;95.72
46392;BME280;32098;49.448;7.904;2023-11-21T01:54:16;97490.31;;;7.33;95.35
46392;BME280;32098;49.448;7.904;2023-11-21T01:56:47;97486.06;;;7.32;95.85
46392;BME280;32098;49.448;7.904;2023-11-21T01:59:20;97489.28;;;7.34;95.39
46392;BME280;32098;49.448;7.904;2023-11-21T02:01:50;97471.00;;;7.26;95.95
46392;BME280;32098;49.448;7.904;2023-11-21T02:04:18;97488.81;;;7.37;95.53
46392;BME280;32098;49.448;7.904;2023-11-21T02:06:45;97487.66;;;7.33;96.08
46392;BME280;32098;49.448;7.904;2023-11-21T02:09:11;97490.88;;;7.35;95.57
46392;BME280;32098;49.448;7.904;2023-11-21T02:11:41;97475.88;;;7.29;95.70
46392;BME280;32098;49.448;7.904;2023-11-21T02:14:08;97493.69;;;7.40;95.75
46392;BME280;32098;49.448;7.904;2023-11-21T02:16:36;97487.78;;;7.38;96.02
46392;BME280;32098;49.448;7.904;2023-11-21T02:19:07;97488.38;;;7.40;95.66
46392;BME280;32098;49.448;7.904;2023-11-21T02:21:36;97486.38;;;7.36;95.59
46392;BME280;32098;49.448;7.904;2023-11-21T02:24:07;97491.25;;;7.39;95.33
46392;BME280;32098;49.448;7.904;2023-11-21T02:26:34;97496.91;;;7.42;95.88
46392;BME280;32098;49.448;7.904;2023-11-21T02:29:01;97485.13;;;7.38;95.99
46392;BME280;32098;49.448;7.904;2023-11-21T02:31:31;97493.47;;;7.42;96.09
46392;BME280;32098;49.448;7.904;2023-11-21T02:34:00;97499.34;;;7.44;96.14
46392;BME280;32098;49.448;7.904;2023-11-21T02:36:26;97498.09;;;7.46;95.74
46392;BME280;32098;49.448;7.904;2023-11-21T02:38:53;97494.84;;;7.44;95.37
46392;BME280;32098;49.448;7.904;2023-11-21T02:41:19;97491.59;;;7.42;95.90
46392;BME280;32098;49.448;7.904;2023-11-21T02:43:46;97489.41;;;7.39;95.78
46392;BME280;32098;49.448;7.904;2023-11-21T02:46:13;97494.72;;;7.39;95.58
46392;BME280;32098;49.448;7.904;2023-11-21T02:48:39;97489.88;;;7.36;95.94
46392;BME280;32098;49.448;7.904;2023-11-21T02:51:06;97474.81;;;7.30;95.50
46392;BME280;32098;49.448;7.904;2023-11-21T02:53:33;97498.53;;;7.43;95.88
46392;BME280;32098;49.448;7.904;2023-11-21T02:56:01;97497.16;;;7.41;95.73
46392;BME280;32098;49.448;7.904;2023-11-21T02:58:27;97496.91;;;7.42;96.20
46392;BME280;32098;49.448;7.904;2023-11-21T03:00:54;97498.97;;;7.40;96.26
46392;BME280;32098;49.448;7.904;2023-11-21T03:03:20;97497.38;;;7.39;96.32
46392;BME280;32098;49.448;7.904;2023-11-21T03:05:47;97489.19;;;7.41;96.08
46392;BME280;32098;49.448;7.904;2023-11-21T03:08:14;97496.34;;;7.40;96.65
46392;BME280;32098;49.448;7.904;2023-11-21T03:10:41;97494.13;;;7.37;96.10
46392;BME280;32098;49.448;7.904;2023-11-21T03:13:07;97497.38;;;7.39;96.13
46392;BME280;32098;49.448;7.904;2023-11-21T03:15:34;97498.66;;;7.37;96.68
46392;BME280;32098;49.448;7.904;2023-11-21T03:18:02;97493.19;;;7.32;97.14
46392;BME280;32098;49.448;7.904;2023-11-21T03:20:31;97489.50;;;7.32;96.94
46392;BME280;32098;49.448;7.904;2023-11-21T03:22:58;97497.00;;;7.36;97.03
46392;BME280;32098;49.448;7.904;2023-11-21T03:25:26;97499.91;;;7.34;97.00
46392;BME280;32098;49.448;7.904;2023-11-21T03:27:52;97498.66;;;7.37;97.38
46392;BME280;32098;49.448;7.904;2023-11-21T03:30:19;97503.16;;;7.36;97.21
46392;BME280;32098;49.448;7.904;2023-11-21T03:32:47;97512.94;;;7.36;97.04
46392;BME280;32098;49.448;7.904;2023-11-21T03:35:14;97512.13;;;7.35;97.19
46392;BME280;32098;49.448;7.904;2023-11-21T03:37:41;97517.00;;;7.38;97.19
46392;BME280;32098;49.448;7.904;2023-11-21T03:40:09;97514.22;;;7.33;96.93
46392;BME280;32098;49.448;7.904;2023-11-21T03:42:36;97518.84;;;7.38;97.21
46392;BME280;32098;49.448;7.904;2023-11-21T03:45:04;97517.38;;;7.42;96.62
46392;BME280;32098;49.448;7.904;2023-11-21T03:47:31;97519.41;;;7.40;96.92
46392;BME280;32098;49.448;7.904;2023-11-21T03:49:58;97517.94;;;7.44;97.02
46392;BME280;32098;49.448;7.904;2023-11-21T03:52:25;97523.94;;;7.39;96.69
46392;BME280;32098;49.448;7.904;2023-11-21T03:54:53;97519.78;;;7.43;96.57
46392;BME280;32098;49.448;7.904;2023-11-21T03:57:21;97534.84;;;7.49;96.27
46392;BME280;32098;49.448;7.904;2023-11-21T03:59:48;97528.88;;;7.36;96.24
46392;BME280;32098;49.448;7.904;2023-11-21T04:02:15;97533.59;;;7.22;97.00
46392;BME280;32098;49.448;7.904;2023-11-21T04:04:44;97539.16;;;7.32;97.09
46392;BME280;32098;49.448;7.904;2023-11-21T04:07:10;97531.19;;;7.32;98.04
46392;BME280;32098;49.448;7.904;2023-11-21T04:09:37;97539.63;;;7.29;98.02
46392;BME280;32098;49.448;7.904;2023-11-21T04:12:04;97540.78;;;7.33;98.75
46392;BME280;32098;49.448;7.904;2023-11-21T04:14:32;97535.22;;;7.35;98.62
46392;BME280;32098;49.448;7.904;2023-11-21T04:17:01;97543.81;;;7.37;98.79
46392;BME280;32098;49.448;7.904;2023-11-21T04:19:28;97542.69;;;7.44;97.82
46392;BME280;32098;49.448;7.904;2023-11-21T04:21:55;97548.69;;;7.51;98.06
46392;BME280;32098;49.448;7.904;2023-11-21T04:24:21;97545.91;;;7.46;97.62
46392;BME280;32098;49.448;7.904;2023-11-21T04:26:48;97549.59;;;7.45;97.62
46392;BME280;32098;49.448;7.904;2023-11-21T04:29:14;97552.81;;;7.47;96.62
46392;BME280;32098;49.448;7.904;2023-11-21T04:31:41;97539.19;;;7.44;97.10
46392;BME280;32098;49.448;7.904;2023-11-21T04:34:08;97543.84;;;7.48;96.39
46392;BME280;32098;49.448;7.904;2023-11-21T04:36:34;97511.97;;;7.18;96.35
46392;BME280;32098;49.448;7.904;2023-11-21T04:39:01;97550.94;;;7.36;96.46
46392;BME280;32098;49.448;7.904;2023-11-21T04:41:27;97554.19;;;7.38;96.62
46392;BME280;32098;49.448;7.904;2023-11-21T04:43:54;97559.72;;;7.37;96.45
46392;BME280;32098;49.448;7.904;2023-11-21T04:46:21;97562.88;;;7.45;96.45
46392;BME280;32098;49.448;7.904;2023-11-21T04:48:48;97564.19;;;7.24;97.06
46392;BME280;32098;49.448;7.904;2023-11-21T04:51:15;97561.16;;;7.03;97.20
46392;BME280;32098;49.448;7.904;2023-11-21T04:53:41;97574.94;;;7.11;97.43
46392;BME280;32098;49.448;7.904;2023-11-21T04:56:08;97572.97;;;7.07;97.83
46392;BME280;32098;49.448;7.904;2023-11-21T04:58:35;97571.03;;;6.96;97.83
46392;BME280;32098;49.448;7.904;2023-11-21T05:01:02;97583.44;;;7.02;98.00
46392;BME280;32098;49.448;7.904;2023-11-21T05:03:34;97582.81;;;7.00;97.28
46392;BME280;32098;49.448;7.904;2023-11-21T05:06:01;97585.94;;;6.79;98.73
46392;BME280;32098;49.448;7.904;2023-11-21T05:08:28;97594.19;;;6.89;98.31
46392;BME280;32098;49.448;7.904;2023-11-21T05:10:54;97598.38;;;6.78;98.67
46392;BME280;32098;49.448;7.904;2023-11-21T05:13:22;97580.34;;;6.68;98.46
46392;BME280;32098;49.448;7.904;2023-11-21T05:15:54;97596.47;;;6.85;98.71
46392;BME280;32098;49.448;7.904;2023-11-21T05:18:23;97604.44;;;6.85;98.23
46392;BME280;32098;49.448;7.904;2023-11-21T05:20:49;97611.97;;;6.88;98.08
46392;BME280;32098;49.448;7.904;2023-11-21T05:23:16;97613.50;;;6.96;98.00
46392;BME280;32098;49.448;7.904;2023-11-21T05:25:43;97617.50;;;6.87;97.59
46392;BME280;32098;49.448;7.904;2023-11-21T05:28:09;97610.72;;;6.91;97.20
46392;BME280;32098;49.448;7.904;2023-11-21T05:30:36;97613.44;;;6.84;97.71
46392;BME280;32098;49.448;7.904;2023-11-21T05:33:05;97621.00;;;6.62;97.57
46392;BME280;32098;49.448;7.904;2023-11-21T05:35:32;97625.22;;;6.70;98.38
46392;BME280;32098;49.448;7.904;2023-11-21T05:37:58;97638.59;;;6.57;98.94
46392;BME280;32098;49.448;7.904;2023-11-21T05:40:25;97637.97;;;6.61;98.54
46392;BME280;32098;49.448;7.904;2023-11-21T05:42:55;97637.50;;;6.64;98.22
46392;BME280;32098;49.448;7.904;2023-11-21T05:45:22;97645.53;;;6.58;98.63
46392;BME280;32098;49.448;7.904;2023-11-21T05:47:50;97646.94;;;6.60;98.97
46392;BME280;32098;49.448;7.904;2023-11-21T05:50:17;97620.31;;;6.49;98.15
46392;BME280;32098;49.448;7.904;2023-11-21T05:52:46;97647.19;;;6.77;97.95
46392;BME280;32098;49.448;7.904;2023-11-21T05:55:13;97658.31;;;7.47;100.00
46392;BME280;32098;49.448;7.904;2023-11-21T05:57:41;97654.00;;;7.64;100.00
46392;BME280;32098;49.448;7.904;2023-11-21T06:00:14;97659.44;;;7.69;100.00
46392;BME280;32098;49.448;7.904;2023-11-21T06:02:49;97661.19;;;7.75;100.00
46392;BME280;32098;49.448;7.904;2023-11-21T06:05:18;97668.41;;;7.56;96.75
46392;BME280;32098;49.448;7.904;2023-11-21T06:07:45;97671.34;;;7.48;96.76
46392;BME280;32098;49.448;7.904;2023-11-21T06:10:12;97672.09;;;7.37;96.02
46392;BME280;32098;49.448;7.904;2023-11-21T06:12:40;97673.72;;;7.20;93.96
46392;BME280;32098;49.448;7.904;2023-11-21T06:15:10;97676.50;;;7.07;94.14
46392;BME280;32098;49.448;7.904;2023-11-21T06:17:41;97676.94;;;7.04;94.66
46392;BME280;32098;49.448;7.904;2023-11-21T06:20:09;97690.50;;;6.96;95.65
46392;BME280;32098;49.448;7.904;2023-11-21T06:22:45;97681.03;;;7.00;96.27
46392;BME280;32098;49.448;7.904;2023-11-21T06:25:12;97689.78;;;7.07;96.03
46392;BME280;32098;49.448;7.904;2023-11-21T06:27:42;97691.81;;;7.05;96.32
46392;BME280;32098;49.448;7.904;2023-11-21T06:30:09;97693.03;;;7.09;95.89
46392;BME280;32098;49.448;7.904;2023-11-21T06:32:36;97688.28;;;7.11;96.24
46392;BME280;32098;49.448;7.904;2023-11-21T06:35:07;97698.72;;;7.12;95.94
46392;BME280;32098;49.448;7.904;2023-11-21T06:37:36;97703.63;;;7.09;95.88
46392;BME280;32098;49.448;7.904;2023-11-21T06:40:03;97714.25;;;7.09;96.25
46392;BME280;32098;49.448;7.904;2023-11-21T06:42:30;97711.81;;;7.07;96.57
46392;BME280;32098;49.448;7.904;2023-11-21T06:44:57;97711.03;;;7.07;95.71
46392;BME280;32098;49.448;7.904;2023-11-21T06:47:25;97695.22;;;6.94;96.50
46392;BME280;32098;49.448;7.904;2023-11-21T06:49:52;97710.56;;;7.10;95.92
46392;BME280;32098;49.448;7.904;2023-11-21T06:52:19;97719.56;;;7.09;96.02
46392;BME280;32098;49.448;7.904;2023-11-21T06:54:47;97731.59;;;7.11;95.30
46392;BME280;32098;49.448;7.904;2023-11-21T06:57:14;97730.19;;;7.09;96.09
46392;BME280;32098;49.448;7.904;2023-11-21T06:59:41;97734.28;;;7.05;95.98
46392;BME280;32098;49.448;7.904;2023-11-21T07:02:08;97741.63;;;7.09;96.27
46392;BME280;32098;49.448;7.904;2023-11-21T07:04:36;97742.41;;;7.10;96.39
46392;BME280;32098;49.448;7.904;2023-11-21T07:07:03;97742.00;;;7.13;95.98
46392;BME280;32098;49.448;7.904;2023-11-21T07:09:30;97750.19;;;7.11;96.12
46392;BME280;32098;49.448;7.904;2023-11-21T07:11:57;97753.47;;;7.13;96.42
46392;BME280;32098;49.448;7.904;2023-11-21T07:14:24;97754.00;;;7.22;95.83
46392;BME280;32098;49.448;7.904;2023-11-21T07:16:50;97769.31;;;7.20;95.58
46392;BME280;32098;49.448;7.904;2023-11-21T07:19:20;97767.72;;;7.19;95.26
46392;BME280;32098;49.448;7.904;2023-11-21T07:21:48;97768.06;;;7.22;95.54
46392;BME280;32098;49.448;7.904;2023-11-21T07:24:17;97775.00;;;7.23;95.33
46392;BME280;32098;49.448;7.904;2023-11-21T07:26:44;97738.44;;;7.01;95.71
46392;BME280;32098;49.448;7.904;2023-11-21T07:29:11;97783.38;;;7.27;95.44
46392;BME280;32098;49.448;7.904;2023-11-21T07:31:38;97776.41;;;7.26;95.38
46392;BME280;32098;49.448;7.904;2023-11-21T07:34:05;97784.97;;;7.28;95.22
46392;BME280;32098;49.448;7.904;2023-11-21T07:36:32;97780.72;;;7.27;95.52
46392;BME280;32098;49.448;7.904;2023-11-21T07:38:58;97777.50;;;7.18;95.62
46392;BME280;32098;49.448;7.904;2023-11-21T07:41:25;97786.50;;;7.17;94.80
46392;BME280;32098;49.448;7.904;2023-11-21T07:43:57;97782.00;;;7.18;95.42
46392;BME280;32098;49.448;7.904;2023-11-21T07:46:26;97777.91;;;7.22;95.80
46392;BME280;32098;49.448;7.904;2023-11-21T07:48:53;97789.25;;;7.29;96.49
46392;BME280;32098;49.448;7.904;2023-11-21T07:51:21;97792.06;;;7.34;96.09
46392;BME280;32098;49.448;7.904;2023-11-21T07:53:48;97797.22;;;7.29;95.50
46392;BME280;32098;49.448;7.904;2023-11-21T07:56:16;97807.31;;;7.20;95.56
46392;BME280;32098;49.448;7.904;2023-11-21T07:58:42;97810.19;;;7.19;95.82
46392;BME280;32098;49.448;7.904;2023-11-21T08:01:09;97823.63;;;7.24;96.36
46392;BME280;32098;49.448;7.904;2023-11-21T08:03:37;97821.19;;;7.22;96.42
46392;BME280;32098;49.448;7.904;2023-11-21T08:06:04;97818.41;;;7.11;96.61
46392;BME280;32098;49.448;7.904;2023-11-21T08:08:33;97836.31;;;7.22;96.44
46392;BME280;32098;49.448;7.904;2023-11-21T08:10:59;97838.59;;;7.18;96.39
46392;BME280;32098;49.448;7.904;2023-11-21T08:13:29;97842.41;;;7.22;96.30
46392;BME280;32098;49.448;7.904;2023-11-21T08:15:58;97842.66;;;7.21;96.76
46392;BME280;32098;49.448;7.904;2023-11-21T08:18:29;97845.06;;;7.22;96.99
46392;BME280;32098;49.448;7.904;2023-11-21T08:20:57;97844.44;;;7.27;96.37
46392;BME280;32098;49.448;7.904;2023-11-21T08:23:23;97838.00;;;7.16;95.86
46392;BME280;32098;49.448;7.904;2023-11-21T08:25:53;97832.28;;;7.13;95.92
46392;BME280;32098;49.448;7.904;2023-11-21T08:28:21;97842.50;;;7.16;95.35
46392;BME280;32098;49.448;7.904;2023-11-21T08:30:52;97850.25;;;7.11;95.59
46392;BME280;32098;49.448;7.904;2023-11-21T08:33:20;97847.78;;;7.16;95.50
46392;BME280;32098;49.448;7.904;2023-11-21T08:35:48;97856.81;;;7.08;96.50
46392;BME280;32098;49.448;7.904;2023-11-21T08:38:15;97853.53;;;7.13;96.64
46392;BME280;32098;49.448;7.904;2023-11-21T08:40:41;97853.28;;;7.21;96.65
46392;BME280;32098;49.448;7.904;2023-11-21T08:43:08;97852.53;;;7.14;95.60
46392;BME280;32098;49.448;7.904;2023-11-21T08:45:34;97856.78;;;7.15;94.71
46392;BME280;32098;49.448;7.904;2023-11-21T08:48:01;97859.91;;;7.12;95.66
46392;BME280;32098;49.448;7.904;2023-11-21T08:50:29;97860.28;;;7.09;94.88
46392;BME280;32098;49.448;7.904;2023-11-21T08:52:55;97863.34;;;7.12;95.70
46392;BME280;32098;49.448;7.904;2023-11-21T08:55:22;97868.66;;;7.12;95.73
46392;BME280;32098;49.448;7.904;2023-11-21T08:57:49;97875.81;;;7.12;95.81
46392;BME280;32098;49.448;7.904;2023-11-21T09:00:17;97878.41;;;7.18;95.51
46392;BME280;32098;49.448;7.904;2023-11-21T09:02:45;97883.13;;;7.10;94.97
46392;BME280;32098;49.448;7.904;2023-11-21T09:05:13;97880.25;;;7.18;94.69
46392;BME280;32098;49.448;7.904;2023-11-21T09:07:41;97881.50;;;7.15;94.67
46392;BME280;32098;49.448;7.904;2023-11-21T09:10:08;97882.22;;;6.98;94.67
46392;BME280;32098;49.448;7.904;2023-11-21T09:12:36;97881.31;;;6.79;94.56
46392;BME280;32098;49.448;7.904;2023-11-21T09:15:07;97903.28;;;6.93;95.38
46392;BME280;32098;49.448;7.904;2023-11-21T09:17:34;97881.88;;;6.88;95.09
46392;BME280;32098;49.448;7.904;2023-11-21T09:20:02;97900.63;;;6.93;95.64
46392;BME280;32098;49.448;7.904;2023-11-21T09:22:32;97895.38;;;6.80;95.09
46392;BME280;32098;49.448;7.904;2023-11-21T09:24:59;97906.28;;;7.03;95.96
46392;BME280;32098;49.448;7.904;2023-11-21T09:27:25;97906.63;;;7.13;95.23
46392;BME280;32098;49.448;7.904;2023-11-21T09:29:52;97909.28;;;7.13;95.31
46392;BME280;32098;49.448;7.904;2023-11-21T09:32:20;97919.28;;;7.11;95.66
46392;BME280;32098;49.448;7.904;2023-11-21T09:34:48;97916.63;;;7.11;95.51
46392;BME280;32098;49.448;7.904;2023-11-21T09:37:16;97897.69;;;6.69;96.06
46392;BME280;32098;49.448;7.904;2023-11-21T09:39:43;97920.13;;;7.05;96.27
46392;BME280;32098;49.448;7.904;2023-11-21T09:42:12;97920.13;;;7.05;96.30
46392;BME280;32098;49.448;7.904;2023-11-21T09:47:26;97930.56;;;7.06;96.95
46392;BME280;32098;49.448;7.904;2023-11-21T09:49:54;97935.28;;;7.04;96.70
46392;BME280;32098;49.448;7.904;2023-11-21T09:52:25;97936.94;;;6.99;96.63
46392;BME280;32098;49.448;7.904;2023-11-21T09:54:53;97941.38;;;7.05;96.49
46392;BME280;32098;49.448;7.904;2023-11-21T09:57:21;97931.69;;;6.86;96.88
46392;BME280;32098;49.448;7.904;2023-11-21T09:59:52;97940.50;;;6.80;96.06
46392;BME280;32098;49.448;7.904;2023-11-21T10:02:25;97944.91;;;6.54;95.34
46392;BME280;32098;49.448;7.904;2023-11-21T10:04:53;97909.34;;;6.24;96.45
46392;BME280;32098;49.448;7.904;2023-11-21T10:07:20;97941.59;;;6.65;96.89
46392;BME280;32098;49.448;7.904;2023-11-21T10:09:47;97955.47;;;6.74;96.51
46392;BME280;32098;49.448;7.904;2023-11-21T10:12:17;97954.13;;;6.45;97.28
46392;BME280;32098;49.448;7.904;2023-11-21T10:14:48;97953.91;;;6.53;95.72
46392;BME280;32098;49.448;7.904;2023-11-21T10:17:17;97954.38;;;6.31;97.14
46392;BME280;32098;49.448;7.904;2023-11-21T10:19:48;97971.09;;;6.44;97.61
46392;BME280;32098;49.448;7.904;2023-11-21T10:22:15;97962.47;;;6.55;97.69
46392;BME280;32098;49.448;7.904;2023-11-21T10:24:42;97966.84;;;6.75;97.72
46392;BME280;32098;49.448;7.904;2023-11-21T10:27:19;97965.63;;;6.77;98.25
46392;BME280;32098;49.448;7.904;2023-11-21T10:29:46;97969.69;;;6.86;97.27
46392;BME280;32098;49.448;7.904;2023-11-21T10:32:12;97969.38;;;6.63;96.50
46392;BME280;32098;49.448;7.904;2023-11-21T10:34:39;97978.78;;;6.52;97.44
46392;BME280;32098;49.448;7.904;2023-11-21T10:37:11;97983.28;;;6.58;98.01
46392;BME280;32098;49.448;7.904;2023-11-21T10:39:39;97982.53;;;6.38;97.74
46392;BME280;32098;49.448;7.904;2023-11-21T10:42:08;97988.19;;;6.48;98.31
46392;BME280;32098;49.448;7.904;2023-11-21T10:44:36;97981.25;;;6.47;98.46
46392;BME280;32098;49.448;7.904;2023-11-21T10:47:04;97986.53;;;6.60;98.51
46392;BME280;32098;49.448;7.904;2023-11-21T10:49:31;97978.97;;;6.57;98.40
46392;BME280;32098;49.448;7.904;2023-11-21T10:51:59;97989.78;;;6.62;98.76
46392;BME280;32098;49.448;7.904;2023-11-21T10:54:26;97990.63;;;6.56;98.39
46392;BME280;32098;49.448;7.904;2023-11-21T10:56:57;97989.78;;;6.62;98.45
46392;BME280;32098;49.448;7.904;2023-11-21T10:59:23;97989.13;;;6.74;98.81
46392;BME280;32098;49.448;7.904;2023-11-21T11:01:52;97992.19;;;6.71;98.80
46392;BME280;32098;49.448;7.904;2023-11-21T11:04:19;97998.00;;;6.48;98.94
46392;BME280;32098;49.448;7.904;2023-11-21T11:06:51;97982.50;;;6.51;100.00
46392;BME280;32098;49.448;7.904;2023-11-21T11:09:20;98002.03;;;6.63;99.14
46392;BME280;32098;49.448;7.904;2023-11-21T11:11:47;97986.94;;;6.57;99.03
46392;BME280;32098;49.448;7.904;2023-11-21T11:14:15;97996.78;;;6.37;99.85
46392;BME280;32098;49.448;7.904;2023-11-21T11:16:43;97992.31;;;6.38;100.00
46392;BME280;32098;49.448;7.904;2023-11-21T11:19:10;97999.81;;;6.54;100.00
46392;BME280;32098;49.448;7.904;2023-11-21T11:21:48;97997.72;;;6.62;100.00
46392;BME280;32098;49.448;7.904;2023-11-21T11:29:35;97991.88;;;6.47;99.03
46392;BME280;32098;49.448;7.904;2023-11-21T11:32:20;97983.91;;;6.47;99.23
46392;BME280;32098;49.448;7.904;2023-11-21T11:34:55;97998.41;;;6.51;98.82
46392;BME280;32098;49.448;7.904;2023-11-21T11:37:25;97996.34;;;6.47;100.00
46392;BME280;32098;49.448;7.904;2023-11-21T11:39:52;97992.47;;;6.56;99.63
46392;BME280;32098;49.448;7.904;2023-11-21T11:42:21;97998.56;;;6.63;100.00
46392;BME280;32098;49.448;7.904;2023-11-21T11:44:51;97995.50;;;6.59;98.02
46392;BME280;32098;49.448;7.904;2023-11-21T11:47:23;97992.63;;;6.67;98.71
46392;BME280;32098;49.448;7.904;2023-11-21T11:50:03;97992.56;;;6.81;96.65
46392;BME280;32098;49.448;7.904;2023-11-21T11:52:52;97992.38;;;6.76;95.99
46392;BME280;32098;49.448;7.904;2023-11-21T11:55:21;97994.38;;;6.87;96.20
46392;BME280;32098;49.448;7.904;2023-11-21T11:57:51;97993.84;;;6.65;94.71
46392;BME280;32098;49.448;7.904;2023-11-21T12:00:21;97996.91;;;6.68;96.36
46392;BME280;32098;49.448;7.904;2023-11-21T12:02:53;98000.19;;;6.64;96.15
46392;BME280;32098;49.448;7.904;2023-11-21T12:05:21;97996.72;;;6.63;95.82
46392;BME280;32098;49.448;7.904;2023-11-21T12:07:52;97991.41;;;6.63;94.57
46392;BME280;32098;49.448;7.904;2023-11-21T12:10:22;97991.28;;;6.90;95.68
46392;BME280;32098;49.448;7.904;2023-11-21T12:12:53;98001.41;;;7.12;95.77
46392;BME280;32098;49.448;7.904;2023-11-21T12:15:20;98003.19;;;7.25;94.75
46392;BME280;32098;49.448;7.904;2023-11-21T12:17:48;98000.34;;;7.20;93.90
46392;BME280;32098;49.448;7.904;2023-11-21T12:20:19;97982.66;;;7.01;91.79
46392;BME280;32098;49.448;7.904;2023-11-21T12:22:47;98004.31;;;6.98;91.64
46392;BME280;32098;49.448;7.904;2023-11-21T12:25:21;98004.31;;;6.98;91.17
46392;BME280;32098;49.448;7.904;2023-11-21T12:27:50;98007.34;;;7.08;91.63
46392;BME280;32098;49.448;7.904;2023-11-21T12:30:22;98010.78;;;7.15;92.00
46392;BME280;32098;49.448;7.904;2023-11-21T12:32:53;98010.34;;;7.24;92.08
46392;BME280;32098;49.448;7.904;2023-11-21T12:35:22;98024.94;;;7.40;92.63
46392;BME280;32098;49.448;7.904;2023-11-21T12:37:49;98020.81;;;7.19;91.39
46392;BME280;32098;49.448;7.904;2023-11-21T12:40:20;98020.16;;;7.24;91.20
46392;BME280;32098;49.448;7.904;2023-11-21T12:42:54;98024.59;;;7.30;91.25
46392;BME280;32098;49.448;7.904;2023-11-21T12:45:22;98025.44;;;7.30;90.29
46392;BME280;32098;49.448;7.904;2023-11-21T12:47:57;98029.56;;;7.20;89.09
46392;BME280;32098;49.448;7.904;2023-11-21T12:50:28;98024.31;;;7.13;88.39
46392;BME280;32098;49.448;7.904;2023-11-21T12:53:00;98025.19;;;6.94;86.41
46392;BME280;32098;49.448;7.904;2023-11-21T12:55:30;98029.63;;;7.07;86.51
46392;BME280;32098;49.448;7.904;2023-11-21T12:57:57;98033.25;;;7.19;87.28
46392;BME280;32098;49.448;7.904;2023-11-21T13:00:35;98034.69;;;7.15;87.19
46392;BME280;32098;49.448;7.904;2023-11-21T13:03:05;98027.84;;;7.39;87.74
46392;BME280;32098;49.448;7.904;2023-11-21T13:05:39;98030.13;;;7.60;87.84
46392;BME280;32098;49.448;7.904;2023-11-21T13:08:09;98025.28;;;7.57;86.41
46392;BME280;32098;49.448;7.904;2023-11-21T13:10:44;98035.16;;;7.43;83.75
46392;BME280;32098;49.448;7.904;2023-11-21T13:13:14;98034.03;;;7.57;85.68
46392;BME280;32098;49.448;7.904;2023-11-21T13:15:51;98030.25;;;7.47;84.44
46392;BME280;32098;49.448;7.904;2023-11-21T13:18:19;98041.16;;;7.63;84.48
46392;BME280;32098;49.448;7.904;2023-11-21T13:20:48;98047.94;;;7.59;85.61
46392;BME280;32098;49.448;7.904;2023-11-21T13:23:16;98017.06;;;7.58;84.76